<?xml version="1.0" encoding="UTF-8" standalone="no" ?>
<gpx xmlns="http://www.topografix.com/GPX/1/1" xmlns:xsi="http://www.w3.org/2001/XMLSchema-instance" xsi:schemaLocation="http://www.topografix.com/GPX/1/1 http://www.topografix.com/GPX/1/1/gpx.xsd" version="1.1" creator="VisuGPX - https://www.visugpx.com">
  <metadata>
    <name>Chapelle Saint-Gabriel - Les Alpilles</name>
    <desc><![CDATA[Balade au départ de la chapelle St Gabriel vers Saint Etienne du Grès.]]></desc>
  </metadata>
  <wpt lat="43.76582" lon="4.69916">
    <ele>59</ele>
    <name><![CDATA[À gauche sur le chemin]]></name>
  </wpt>
  <wpt lat="43.76601" lon="4.70931">
    <ele>115</ele>
    <name><![CDATA[À gauche en direction de Saint-Étienne-du-Grès]]></name>
  </wpt>
  <wpt lat="43.75699" lon="4.73111">
    <ele>149</ele>
    <name><![CDATA[Quitter la piste, virer à droite]]></name>
  </wpt>
  <wpt lat="43.75749" lon="4.7282">
    <ele>197</ele>
    <name><![CDATA[Prendre à gauche]]></name>
  </wpt>
  <wpt lat="43.75061" lon="4.72266">
    <ele>96</ele>
    <name><![CDATA[Virer à droite et remonter]]></name>
  </wpt>
  <wpt lat="43.75603" lon="4.72104">
    <ele>155</ele>
    <name><![CDATA[À gauche sur la piste]]></name>
  </wpt>
  <wpt lat="43.75773" lon="4.71509">
    <ele>135</ele>
    <name><![CDATA[En face sur le replat]]></name>
  </wpt>
  <wpt lat="43.75937" lon="4.70598">
    <ele>91</ele>
    <name><![CDATA[Descendre à gauche]]></name>
  </wpt>
  <wpt lat="43.76291" lon="4.70379">
    <ele>85</ele>
    <name><![CDATA[Partir à gauche sur la piste]]></name>
  </wpt>
  <trk>
    <name><![CDATA[Chapelle Saint-Gabriel - Les Alpilles]]></name>
    <trkseg>
      <trkpt lat="43.76656" lon="4.69426">
        <ele>9</ele>
        <time>2019-03-12T08:45:20+01:00</time>
      </trkpt>
      <trkpt lat="43.76658" lon="4.69472">
        <ele>13</ele>
        <time>2019-03-12T08:45:25+01:00</time>
      </trkpt>
      <trkpt lat="43.76649" lon="4.69502">
        <ele>16</ele>
        <time>2019-03-12T08:45:30+01:00</time>
      </trkpt>
      <trkpt lat="43.76659" lon="4.69532">
        <ele>19</ele>
        <time>2019-03-12T08:45:35+01:00</time>
      </trkpt>
      <trkpt lat="43.76659" lon="4.69533">
        <ele>19</ele>
        <time>2019-03-12T08:45:40+01:00</time>
      </trkpt>
      <trkpt lat="43.76654" lon="4.69641">
        <ele>37</ele>
        <time>2019-03-12T08:45:45+01:00</time>
      </trkpt>
      <trkpt lat="43.76657" lon="4.69731">
        <ele>45</ele>
        <time>2019-03-12T08:45:50+01:00</time>
      </trkpt>
      <trkpt lat="43.76635" lon="4.69796">
        <ele>50</ele>
        <time>2019-03-12T08:45:55+01:00</time>
      </trkpt>
      <trkpt lat="43.76589" lon="4.69827">
        <ele>54</ele>
        <time>2019-03-12T08:46:00+01:00</time>
      </trkpt>
      <trkpt lat="43.76593" lon="4.69872">
        <ele>56</ele>
        <time>2019-03-12T08:46:05+01:00</time>
      </trkpt>
      <trkpt lat="43.76582" lon="4.69916">
        <ele>59</ele>
        <time>2019-03-12T08:46:10+01:00</time>
      </trkpt>
      <trkpt lat="43.76655" lon="4.69957">
        <ele>58</ele>
        <time>2019-03-12T08:46:15+01:00</time>
      </trkpt>
      <trkpt lat="43.76742" lon="4.69946">
        <ele>56</ele>
        <time>2019-03-12T08:46:20+01:00</time>
      </trkpt>
      <trkpt lat="43.76835" lon="4.69925">
        <ele>48</ele>
        <time>2019-03-12T08:46:25+01:00</time>
      </trkpt>
      <trkpt lat="43.76885" lon="4.69891">
        <ele>45</ele>
        <time>2019-03-12T08:46:30+01:00</time>
      </trkpt>
      <trkpt lat="43.76935" lon="4.6989">
        <ele>45</ele>
        <time>2019-03-12T08:46:35+01:00</time>
      </trkpt>
      <trkpt lat="43.76939" lon="4.69946">
        <ele>49</ele>
        <time>2019-03-12T08:46:40+01:00</time>
      </trkpt>
      <trkpt lat="43.76894" lon="4.7">
        <ele>55</ele>
        <time>2019-03-12T08:46:45+01:00</time>
      </trkpt>
      <trkpt lat="43.76866" lon="4.69992">
        <ele>57</ele>
        <time>2019-03-12T08:46:50+01:00</time>
      </trkpt>
      <trkpt lat="43.7681" lon="4.70043">
        <ele>65</ele>
        <time>2019-03-12T08:46:55+01:00</time>
      </trkpt>
      <trkpt lat="43.76802" lon="4.70144">
        <ele>70</ele>
        <time>2019-03-12T08:47:00+01:00</time>
      </trkpt>
      <trkpt lat="43.76765" lon="4.70225">
        <ele>75</ele>
        <time>2019-03-12T08:47:05+01:00</time>
      </trkpt>
      <trkpt lat="43.76706" lon="4.70223">
        <ele>81</ele>
        <time>2019-03-12T08:47:10+01:00</time>
      </trkpt>
      <trkpt lat="43.7666" lon="4.70215">
        <ele>82</ele>
        <time>2019-03-12T08:47:15+01:00</time>
      </trkpt>
      <trkpt lat="43.76625" lon="4.70246">
        <ele>84</ele>
        <time>2019-03-12T08:47:20+01:00</time>
      </trkpt>
      <trkpt lat="43.76632" lon="4.70309">
        <ele>86</ele>
        <time>2019-03-12T08:47:25+01:00</time>
      </trkpt>
      <trkpt lat="43.76624" lon="4.70373">
        <ele>87</ele>
        <time>2019-03-12T08:47:30+01:00</time>
      </trkpt>
      <trkpt lat="43.76655" lon="4.70408">
        <ele>87</ele>
        <time>2019-03-12T08:47:35+01:00</time>
      </trkpt>
      <trkpt lat="43.76638" lon="4.70466">
        <ele>89</ele>
        <time>2019-03-12T08:47:40+01:00</time>
      </trkpt>
      <trkpt lat="43.76607" lon="4.70491">
        <ele>91</ele>
        <time>2019-03-12T08:47:45+01:00</time>
      </trkpt>
      <trkpt lat="43.76621" lon="4.70537">
        <ele>91</ele>
        <time>2019-03-12T08:47:50+01:00</time>
      </trkpt>
      <trkpt lat="43.76615" lon="4.70594">
        <ele>98</ele>
        <time>2019-03-12T08:47:55+01:00</time>
      </trkpt>
      <trkpt lat="43.7664" lon="4.70652">
        <ele>100</ele>
        <time>2019-03-12T08:48:00+01:00</time>
      </trkpt>
      <trkpt lat="43.76627" lon="4.70766">
        <ele>106</ele>
        <time>2019-03-12T08:48:05+01:00</time>
      </trkpt>
      <trkpt lat="43.7664" lon="4.70893">
        <ele>109</ele>
        <time>2019-03-12T08:48:10+01:00</time>
      </trkpt>
      <trkpt lat="43.76623" lon="4.70927">
        <ele>112</ele>
        <time>2019-03-12T08:48:15+01:00</time>
      </trkpt>
      <trkpt lat="43.76601" lon="4.70931">
        <ele>115</ele>
        <time>2019-03-12T08:48:20+01:00</time>
      </trkpt>
      <trkpt lat="43.76604" lon="4.71024">
        <ele>120</ele>
        <time>2019-03-12T08:48:25+01:00</time>
      </trkpt>
      <trkpt lat="43.76527" lon="4.71135">
        <ele>130</ele>
        <time>2019-03-12T08:48:30+01:00</time>
      </trkpt>
      <trkpt lat="43.76458" lon="4.7123">
        <ele>136</ele>
        <time>2019-03-12T08:48:35+01:00</time>
      </trkpt>
      <trkpt lat="43.76431" lon="4.71393">
        <ele>142</ele>
        <time>2019-03-12T08:48:40+01:00</time>
      </trkpt>
      <trkpt lat="43.76415" lon="4.71543">
        <ele>149</ele>
        <time>2019-03-12T08:48:45+01:00</time>
      </trkpt>
      <trkpt lat="43.76333" lon="4.71646">
        <ele>155</ele>
        <time>2019-03-12T08:48:50+01:00</time>
      </trkpt>
      <trkpt lat="43.76297" lon="4.71702">
        <ele>158</ele>
        <time>2019-03-12T08:48:55+01:00</time>
      </trkpt>
      <trkpt lat="43.76266" lon="4.7185">
        <ele>163</ele>
        <time>2019-03-12T08:49:00+01:00</time>
      </trkpt>
      <trkpt lat="43.76245" lon="4.71963">
        <ele>169</ele>
        <time>2019-03-12T08:49:05+01:00</time>
      </trkpt>
      <trkpt lat="43.76193" lon="4.72024">
        <ele>173</ele>
        <time>2019-03-12T08:49:10+01:00</time>
      </trkpt>
      <trkpt lat="43.76195" lon="4.72189">
        <ele>182</ele>
        <time>2019-03-12T08:49:15+01:00</time>
      </trkpt>
      <trkpt lat="43.76193" lon="4.72318">
        <ele>186</ele>
        <time>2019-03-12T08:49:20+01:00</time>
      </trkpt>
      <trkpt lat="43.76187" lon="4.72427">
        <ele>190</ele>
        <time>2019-03-12T08:49:25+01:00</time>
      </trkpt>
      <trkpt lat="43.76193" lon="4.72513">
        <ele>191</ele>
        <time>2019-03-12T08:49:30+01:00</time>
      </trkpt>
      <trkpt lat="43.76183" lon="4.72599">
        <ele>192</ele>
        <time>2019-03-12T08:49:35+01:00</time>
      </trkpt>
      <trkpt lat="43.76102" lon="4.72687">
        <ele>185</ele>
        <time>2019-03-12T08:49:40+01:00</time>
      </trkpt>
      <trkpt lat="43.76056" lon="4.72732">
        <ele>180</ele>
        <time>2019-03-12T08:49:45+01:00</time>
      </trkpt>
      <trkpt lat="43.76" lon="4.72781">
        <ele>178</ele>
        <time>2019-03-12T08:49:50+01:00</time>
      </trkpt>
      <trkpt lat="43.75921" lon="4.72828">
        <ele>172</ele>
        <time>2019-03-12T08:49:55+01:00</time>
      </trkpt>
      <trkpt lat="43.75848" lon="4.72875">
        <ele>171</ele>
        <time>2019-03-12T08:50:00+01:00</time>
      </trkpt>
      <trkpt lat="43.75814" lon="4.7294">
        <ele>162</ele>
        <time>2019-03-12T08:50:05+01:00</time>
      </trkpt>
      <trkpt lat="43.75786" lon="4.7303">
        <ele>156</ele>
        <time>2019-03-12T08:50:10+01:00</time>
      </trkpt>
      <trkpt lat="43.75755" lon="4.73088">
        <ele>153</ele>
        <time>2019-03-12T08:50:15+01:00</time>
      </trkpt>
      <trkpt lat="43.75699" lon="4.73111">
        <ele>149</ele>
        <time>2019-03-12T08:50:20+01:00</time>
      </trkpt>
      <trkpt lat="43.75646" lon="4.73101">
        <ele>153</ele>
        <time>2019-03-12T08:50:25+01:00</time>
      </trkpt>
      <trkpt lat="43.75622" lon="4.73084">
        <ele>153</ele>
        <time>2019-03-12T08:50:30+01:00</time>
      </trkpt>
      <trkpt lat="43.75584" lon="4.73069">
        <ele>152</ele>
        <time>2019-03-12T08:50:35+01:00</time>
      </trkpt>
      <trkpt lat="43.7555" lon="4.73041">
        <ele>153</ele>
        <time>2019-03-12T08:50:40+01:00</time>
      </trkpt>
      <trkpt lat="43.75502" lon="4.73024">
        <ele>150</ele>
        <time>2019-03-12T08:50:45+01:00</time>
      </trkpt>
      <trkpt lat="43.75453" lon="4.73006">
        <ele>145</ele>
        <time>2019-03-12T08:50:50+01:00</time>
      </trkpt>
      <trkpt lat="43.75395" lon="4.72983">
        <ele>139</ele>
        <time>2019-03-12T08:50:55+01:00</time>
      </trkpt>
      <trkpt lat="43.75355" lon="4.72972">
        <ele>134</ele>
        <time>2019-03-12T08:51:00+01:00</time>
      </trkpt>
      <trkpt lat="43.7533" lon="4.72948">
        <ele>132</ele>
        <time>2019-03-12T08:51:05+01:00</time>
      </trkpt>
      <trkpt lat="43.75293" lon="4.72918">
        <ele>126</ele>
        <time>2019-03-12T08:51:10+01:00</time>
      </trkpt>
      <trkpt lat="43.75248" lon="4.72893">
        <ele>120</ele>
        <time>2019-03-12T08:51:15+01:00</time>
      </trkpt>
      <trkpt lat="43.75212" lon="4.72875">
        <ele>109</ele>
        <time>2019-03-12T08:51:20+01:00</time>
      </trkpt>
      <trkpt lat="43.75177" lon="4.72841">
        <ele>107</ele>
        <time>2019-03-12T08:51:25+01:00</time>
      </trkpt>
      <trkpt lat="43.75129" lon="4.72764">
        <ele>108</ele>
        <time>2019-03-12T08:51:30+01:00</time>
      </trkpt>
      <trkpt lat="43.75099" lon="4.72689">
        <ele>119</ele>
        <time>2019-03-12T08:51:35+01:00</time>
      </trkpt>
      <trkpt lat="43.75121" lon="4.7265">
        <ele>124</ele>
        <time>2019-03-12T08:51:40+01:00</time>
      </trkpt>
      <trkpt lat="43.7516" lon="4.72672">
        <ele>129</ele>
        <time>2019-03-12T08:51:45+01:00</time>
      </trkpt>
      <trkpt lat="43.75205" lon="4.72753">
        <ele>141</ele>
        <time>2019-03-12T08:51:50+01:00</time>
      </trkpt>
      <trkpt lat="43.75249" lon="4.72813">
        <ele>155</ele>
        <time>2019-03-12T08:51:55+01:00</time>
      </trkpt>
      <trkpt lat="43.75304" lon="4.7282">
        <ele>161</ele>
        <time>2019-03-12T08:52:00+01:00</time>
      </trkpt>
      <trkpt lat="43.75372" lon="4.72837">
        <ele>171</ele>
        <time>2019-03-12T08:52:05+01:00</time>
      </trkpt>
      <trkpt lat="43.75436" lon="4.72843">
        <ele>175</ele>
        <time>2019-03-12T08:52:10+01:00</time>
      </trkpt>
      <trkpt lat="43.75507" lon="4.72888">
        <ele>186</ele>
        <time>2019-03-12T08:52:15+01:00</time>
      </trkpt>
      <trkpt lat="43.75538" lon="4.72905">
        <ele>186</ele>
        <time>2019-03-12T08:52:20+01:00</time>
      </trkpt>
      <trkpt lat="43.75592" lon="4.72884">
        <ele>190</ele>
        <time>2019-03-12T08:52:25+01:00</time>
      </trkpt>
      <trkpt lat="43.75671" lon="4.72854">
        <ele>194</ele>
        <time>2019-03-12T08:52:30+01:00</time>
      </trkpt>
      <trkpt lat="43.75749" lon="4.7282">
        <ele>197</ele>
        <time>2019-03-12T08:52:35+01:00</time>
      </trkpt>
      <trkpt lat="43.75673" lon="4.7279">
        <ele>194</ele>
        <time>2019-03-12T08:52:40+01:00</time>
      </trkpt>
      <trkpt lat="43.75631" lon="4.72749">
        <ele>193</ele>
        <time>2019-03-12T08:52:45+01:00</time>
      </trkpt>
      <trkpt lat="43.75556" lon="4.72676">
        <ele>190</ele>
        <time>2019-03-12T08:52:50+01:00</time>
      </trkpt>
      <trkpt lat="43.7551" lon="4.72637">
        <ele>189</ele>
        <time>2019-03-12T08:52:55+01:00</time>
      </trkpt>
      <trkpt lat="43.7545" lon="4.72614">
        <ele>184</ele>
        <time>2019-03-12T08:53:00+01:00</time>
      </trkpt>
      <trkpt lat="43.75425" lon="4.72566">
        <ele>181</ele>
        <time>2019-03-12T08:53:05+01:00</time>
      </trkpt>
      <trkpt lat="43.75448" lon="4.72472">
        <ele>174</ele>
        <time>2019-03-12T08:53:10+01:00</time>
      </trkpt>
      <trkpt lat="43.75361" lon="4.72476">
        <ele>167</ele>
        <time>2019-03-12T08:53:15+01:00</time>
      </trkpt>
      <trkpt lat="43.75327" lon="4.72466">
        <ele>161</ele>
        <time>2019-03-12T08:53:20+01:00</time>
      </trkpt>
      <trkpt lat="43.75321" lon="4.72395">
        <ele>154</ele>
        <time>2019-03-12T08:53:25+01:00</time>
      </trkpt>
      <trkpt lat="43.75298" lon="4.72369">
        <ele>150</ele>
        <time>2019-03-12T08:53:30+01:00</time>
      </trkpt>
      <trkpt lat="43.75276" lon="4.72365">
        <ele>148</ele>
        <time>2019-03-12T08:53:35+01:00</time>
      </trkpt>
      <trkpt lat="43.75259" lon="4.72382">
        <ele>146</ele>
        <time>2019-03-12T08:53:40+01:00</time>
      </trkpt>
      <trkpt lat="43.75185" lon="4.72363">
        <ele>130</ele>
        <time>2019-03-12T08:53:45+01:00</time>
      </trkpt>
      <trkpt lat="43.75119" lon="4.72384">
        <ele>115</ele>
        <time>2019-03-12T08:53:50+01:00</time>
      </trkpt>
      <trkpt lat="43.75061" lon="4.72266">
        <ele>96</ele>
        <time>2019-03-12T08:53:55+01:00</time>
      </trkpt>
      <trkpt lat="43.75073" lon="4.72197">
        <ele>99</ele>
        <time>2019-03-12T08:54:00+01:00</time>
      </trkpt>
      <trkpt lat="43.75126" lon="4.72187">
        <ele>105</ele>
        <time>2019-03-12T08:54:05+01:00</time>
      </trkpt>
      <trkpt lat="43.75181" lon="4.72177">
        <ele>106</ele>
        <time>2019-03-12T08:54:10+01:00</time>
      </trkpt>
      <trkpt lat="43.75157" lon="4.7212">
        <ele>106</ele>
        <time>2019-03-12T08:54:15+01:00</time>
      </trkpt>
      <trkpt lat="43.75096" lon="4.72049">
        <ele>106</ele>
        <time>2019-03-12T08:54:20+01:00</time>
      </trkpt>
      <trkpt lat="43.75057" lon="4.72001">
        <ele>99</ele>
        <time>2019-03-12T08:54:25+01:00</time>
      </trkpt>
      <trkpt lat="43.7505" lon="4.71925">
        <ele>94</ele>
        <time>2019-03-12T08:54:30+01:00</time>
      </trkpt>
      <trkpt lat="43.75048" lon="4.71838">
        <ele>86</ele>
        <time>2019-03-12T08:54:35+01:00</time>
      </trkpt>
      <trkpt lat="43.75121" lon="4.71813">
        <ele>82</ele>
        <time>2019-03-12T08:54:40+01:00</time>
      </trkpt>
      <trkpt lat="43.7516" lon="4.71826">
        <ele>88</ele>
        <time>2019-03-12T08:54:45+01:00</time>
      </trkpt>
      <trkpt lat="43.75203" lon="4.71873">
        <ele>99</ele>
        <time>2019-03-12T08:54:50+01:00</time>
      </trkpt>
      <trkpt lat="43.75189" lon="4.71796">
        <ele>97</ele>
        <time>2019-03-12T08:54:55+01:00</time>
      </trkpt>
      <trkpt lat="43.75172" lon="4.71718">
        <ele>99</ele>
        <time>2019-03-12T08:55:00+01:00</time>
      </trkpt>
      <trkpt lat="43.75223" lon="4.71747">
        <ele>106</ele>
        <time>2019-03-12T08:55:05+01:00</time>
      </trkpt>
      <trkpt lat="43.75274" lon="4.71841">
        <ele>119</ele>
        <time>2019-03-12T08:55:10+01:00</time>
      </trkpt>
      <trkpt lat="43.75313" lon="4.7182">
        <ele>123</ele>
        <time>2019-03-12T08:55:15+01:00</time>
      </trkpt>
      <trkpt lat="43.75383" lon="4.71895">
        <ele>135</ele>
        <time>2019-03-12T08:55:20+01:00</time>
      </trkpt>
      <trkpt lat="43.75451" lon="4.71966">
        <ele>142</ele>
        <time>2019-03-12T08:55:25+01:00</time>
      </trkpt>
      <trkpt lat="43.75513" lon="4.72024">
        <ele>148</ele>
        <time>2019-03-12T08:55:30+01:00</time>
      </trkpt>
      <trkpt lat="43.75603" lon="4.72104">
        <ele>155</ele>
        <time>2019-03-12T08:55:35+01:00</time>
      </trkpt>
      <trkpt lat="43.75676" lon="4.72118">
        <ele>156</ele>
        <time>2019-03-12T08:55:40+01:00</time>
      </trkpt>
      <trkpt lat="43.75684" lon="4.72036">
        <ele>151</ele>
        <time>2019-03-12T08:55:45+01:00</time>
      </trkpt>
      <trkpt lat="43.7567" lon="4.71925">
        <ele>149</ele>
        <time>2019-03-12T08:55:50+01:00</time>
      </trkpt>
      <trkpt lat="43.75639" lon="4.71809">
        <ele>145</ele>
        <time>2019-03-12T08:55:55+01:00</time>
      </trkpt>
      <trkpt lat="43.75575" lon="4.71787">
        <ele>144</ele>
        <time>2019-03-12T08:56:00+01:00</time>
      </trkpt>
      <trkpt lat="43.75569" lon="4.7171">
        <ele>139</ele>
        <time>2019-03-12T08:56:05+01:00</time>
      </trkpt>
      <trkpt lat="43.75593" lon="4.71684">
        <ele>134</ele>
        <time>2019-03-12T08:56:10+01:00</time>
      </trkpt>
      <trkpt lat="43.7564" lon="4.71719">
        <ele>129</ele>
        <time>2019-03-12T08:56:15+01:00</time>
      </trkpt>
      <trkpt lat="43.7569" lon="4.71815">
        <ele>123</ele>
        <time>2019-03-12T08:56:20+01:00</time>
      </trkpt>
      <trkpt lat="43.75721" lon="4.7191">
        <ele>120</ele>
        <time>2019-03-12T08:56:25+01:00</time>
      </trkpt>
      <trkpt lat="43.75742" lon="4.71993">
        <ele>120</ele>
        <time>2019-03-12T08:56:30+01:00</time>
      </trkpt>
      <trkpt lat="43.75764" lon="4.71963">
        <ele>118</ele>
        <time>2019-03-12T08:56:35+01:00</time>
      </trkpt>
      <trkpt lat="43.75773" lon="4.71906">
        <ele>117</ele>
        <time>2019-03-12T08:56:40+01:00</time>
      </trkpt>
      <trkpt lat="43.75798" lon="4.71847">
        <ele>126</ele>
        <time>2019-03-12T08:56:45+01:00</time>
      </trkpt>
      <trkpt lat="43.75787" lon="4.71725">
        <ele>131</ele>
        <time>2019-03-12T08:56:50+01:00</time>
      </trkpt>
      <trkpt lat="43.7577" lon="4.71579">
        <ele>135</ele>
        <time>2019-03-12T08:56:55+01:00</time>
      </trkpt>
      <trkpt lat="43.75773" lon="4.71509">
        <ele>135</ele>
        <time>2019-03-12T08:57:00+01:00</time>
      </trkpt>
      <trkpt lat="43.75794" lon="4.71391">
        <ele>126</ele>
        <time>2019-03-12T08:57:05+01:00</time>
      </trkpt>
      <trkpt lat="43.7582" lon="4.71253">
        <ele>105</ele>
        <time>2019-03-12T08:57:10+01:00</time>
      </trkpt>
      <trkpt lat="43.75848" lon="4.71101">
        <ele>116</ele>
        <time>2019-03-12T08:57:15+01:00</time>
      </trkpt>
      <trkpt lat="43.75862" lon="4.71004">
        <ele>113</ele>
        <time>2019-03-12T08:57:20+01:00</time>
      </trkpt>
      <trkpt lat="43.75879" lon="4.70891">
        <ele>106</ele>
        <time>2019-03-12T08:57:25+01:00</time>
      </trkpt>
      <trkpt lat="43.75897" lon="4.70811">
        <ele>100</ele>
        <time>2019-03-12T08:57:30+01:00</time>
      </trkpt>
      <trkpt lat="43.7591" lon="4.70728">
        <ele>96</ele>
        <time>2019-03-12T08:57:35+01:00</time>
      </trkpt>
      <trkpt lat="43.75925" lon="4.70665">
        <ele>94</ele>
        <time>2019-03-12T08:57:40+01:00</time>
      </trkpt>
      <trkpt lat="43.75937" lon="4.70598">
        <ele>91</ele>
        <time>2019-03-12T08:57:45+01:00</time>
      </trkpt>
      <trkpt lat="43.75894" lon="4.70573">
        <ele>88</ele>
        <time>2019-03-12T08:57:50+01:00</time>
      </trkpt>
      <trkpt lat="43.75847" lon="4.70551">
        <ele>85</ele>
        <time>2019-03-12T08:57:55+01:00</time>
      </trkpt>
      <trkpt lat="43.75901" lon="4.70513">
        <ele>85</ele>
        <time>2019-03-12T08:58:00+01:00</time>
      </trkpt>
      <trkpt lat="43.75972" lon="4.70534">
        <ele>86</ele>
        <time>2019-03-12T08:58:05+01:00</time>
      </trkpt>
      <trkpt lat="43.76009" lon="4.70521">
        <ele>87</ele>
        <time>2019-03-12T08:58:10+01:00</time>
      </trkpt>
      <trkpt lat="43.76063" lon="4.70476">
        <ele>86</ele>
        <time>2019-03-12T08:58:15+01:00</time>
      </trkpt>
      <trkpt lat="43.761" lon="4.70464">
        <ele>86</ele>
        <time>2019-03-12T08:58:20+01:00</time>
      </trkpt>
      <trkpt lat="43.76129" lon="4.70474">
        <ele>86</ele>
        <time>2019-03-12T08:58:25+01:00</time>
      </trkpt>
      <trkpt lat="43.76155" lon="4.70483">
        <ele>86</ele>
        <time>2019-03-12T08:58:30+01:00</time>
      </trkpt>
      <trkpt lat="43.76179" lon="4.70517">
        <ele>88</ele>
        <time>2019-03-12T08:58:35+01:00</time>
      </trkpt>
      <trkpt lat="43.76204" lon="4.70442">
        <ele>86</ele>
        <time>2019-03-12T08:58:40+01:00</time>
      </trkpt>
      <trkpt lat="43.76245" lon="4.70408">
        <ele>85</ele>
        <time>2019-03-12T08:58:45+01:00</time>
      </trkpt>
      <trkpt lat="43.76269" lon="4.70408">
        <ele>86</ele>
        <time>2019-03-12T08:58:50+01:00</time>
      </trkpt>
      <trkpt lat="43.76291" lon="4.70379">
        <ele>85</ele>
        <time>2019-03-12T08:58:55+01:00</time>
      </trkpt>
      <trkpt lat="43.76246" lon="4.70324">
        <ele>82</ele>
        <time>2019-03-12T08:59:00+01:00</time>
      </trkpt>
      <trkpt lat="43.76198" lon="4.70251">
        <ele>76</ele>
        <time>2019-03-12T08:59:05+01:00</time>
      </trkpt>
      <trkpt lat="43.76145" lon="4.70183">
        <ele>70</ele>
        <time>2019-03-12T08:59:10+01:00</time>
      </trkpt>
      <trkpt lat="43.76095" lon="4.701">
        <ele>65</ele>
        <time>2019-03-12T08:59:15+01:00</time>
      </trkpt>
      <trkpt lat="43.76121" lon="4.70052">
        <ele>62</ele>
        <time>2019-03-12T08:59:20+01:00</time>
      </trkpt>
      <trkpt lat="43.76195" lon="4.69996">
        <ele>58</ele>
        <time>2019-03-12T08:59:25+01:00</time>
      </trkpt>
      <trkpt lat="43.7622" lon="4.69951">
        <ele>54</ele>
        <time>2019-03-12T08:59:30+01:00</time>
      </trkpt>
      <trkpt lat="43.76229" lon="4.69903">
        <ele>52</ele>
        <time>2019-03-12T08:59:35+01:00</time>
      </trkpt>
      <trkpt lat="43.76285" lon="4.69886">
        <ele>49</ele>
        <time>2019-03-12T08:59:40+01:00</time>
      </trkpt>
      <trkpt lat="43.76389" lon="4.69938">
        <ele>55</ele>
        <time>2019-03-12T08:59:45+01:00</time>
      </trkpt>
      <trkpt lat="43.76424" lon="4.69912">
        <ele>57</ele>
        <time>2019-03-12T08:59:50+01:00</time>
      </trkpt>
      <trkpt lat="43.765" lon="4.69925">
        <ele>60</ele>
        <time>2019-03-12T08:59:55+01:00</time>
      </trkpt>
      <trkpt lat="43.76537" lon="4.69925">
        <ele>60</ele>
        <time>2019-03-12T09:00:00+01:00</time>
      </trkpt>
      <trkpt lat="43.76579" lon="4.69914">
        <ele>59</ele>
        <time>2019-03-12T09:00:05+01:00</time>
      </trkpt>
      <trkpt lat="43.76591" lon="4.69872">
        <ele>56</ele>
        <time>2019-03-12T09:00:10+01:00</time>
      </trkpt>
      <trkpt lat="43.76593" lon="4.69827">
        <ele>54</ele>
        <time>2019-03-12T09:00:15+01:00</time>
      </trkpt>
      <trkpt lat="43.76635" lon="4.69795">
        <ele>50</ele>
        <time>2019-03-12T09:00:20+01:00</time>
      </trkpt>
      <trkpt lat="43.76655" lon="4.69731">
        <ele>45</ele>
        <time>2019-03-12T09:00:25+01:00</time>
      </trkpt>
      <trkpt lat="43.76651" lon="4.69636">
        <ele>36</ele>
        <time>2019-03-12T09:00:30+01:00</time>
      </trkpt>
      <trkpt lat="43.76661" lon="4.69537">
        <ele>19</ele>
        <time>2019-03-12T09:00:35+01:00</time>
      </trkpt>
      <trkpt lat="43.76651" lon="4.69502">
        <ele>16</ele>
        <time>2019-03-12T09:00:40+01:00</time>
      </trkpt>
      <trkpt lat="43.76657" lon="4.69471">
        <ele>13</ele>
        <time>2019-03-12T09:00:45+01:00</time>
      </trkpt>
      <trkpt lat="43.76655" lon="4.69427">
        <ele>10</ele>
        <time>2019-03-12T09:00:50+01:00</time>
      </trkpt>
    </trkseg>
  </trk>
</gpx>